Terminal Aerodrome Forecast
Issued by NWS

Home | Current Version | Previous Version | Graphics & Text | Print | Product List | Glossary On
Versions: 1 2 3 4 5 6 7 8 9 10 11 12 13 14 15
000
FTUS43 KTOP 011100
TAFMHK
TAF
KMHK 011120Z 0112/0212 14003KT P6SM SKC
     FM011400 18008KT P6SM FEW070 SCT150
     FM020000 16004KT P6SM BKN120=

USA.gov is the U.S. government's official web portal to all federal, state and local government web resources and services.